sensor_id;sensor_type;location;lat;lon;timestamp;P1;durP1;ratioP1;P2;durP2;ratioP2
73599;SDS011;61877;48.246;9.220;2022-12-07T00:01:15;12.30;;;5.75;;
73599;SDS011;61877;48.246;9.220;2022-12-07T00:03:43;14.05;;;6.15;;
73599;SDS011;61877;48.246;9.220;2022-12-07T00:06:11;12.65;;;5.82;;
73599;SDS011;61877;48.246;9.220;2022-12-07T00:08:39;13.98;;;5.72;;
73599;SDS011;61877;48.246;9.220;2022-12-07T00:11:06;12.23;;;5.77;;
73599;SDS011;61877;48.246;9.220;2022-12-07T00:13:33;12.80;;;6.07;;
73599;SDS011;61877;48.246;9.220;2022-12-07T00:16:00;12.18;;;6.10;;
73599;SDS011;61877;48.246;9.220;2022-12-07T00:18:26;13.13;;;5.68;;
73599;SDS011;61877;48.246;9.220;2022-12-07T00:20:52;14.63;;;7.10;;
73599;SDS011;61877;48.246;9.220;2022-12-07T00:23:18;13.25;;;6.30;;
73599;SDS011;61877;48.246;9.220;2022-12-07T00:25:45;13.13;;;6.30;;
73599;SDS011;61877;48.246;9.220;2022-12-07T00:28:11;13.00;;;6.10;;
73599;SDS011;61877;48.246;9.220;2022-12-07T00:30:36;13.37;;;6.17;;
73599;SDS011;61877;48.246;9.220;2022-12-07T00:33:01;12.20;;;6.03;;
73599;SDS011;61877;48.246;9.220;2022-12-07T00:35:27;12.53;;;5.60;;
73599;SDS011;61877;48.246;9.220;2022-12-07T00:37:52;12.83;;;5.67;;
73599;SDS011;61877;48.246;9.220;2022-12-07T00:40:18;12.83;;;5.80;;
73599;SDS011;61877;48.246;9.220;2022-12-07T00:42:44;13.40;;;5.97;;
73599;SDS011;61877;48.246;9.220;2022-12-07T00:45:10;13.25;;;5.88;;
73599;SDS011;61877;48.246;9.220;2022-12-07T00:47:35;13.77;;;6.00;;
73599;SDS011;61877;48.246;9.220;2022-12-07T00:50:01;12.63;;;5.80;;
73599;SDS011;61877;48.246;9.220;2022-12-07T00:52:26;12.65;;;5.90;;
73599;SDS011;61877;48.246;9.220;2022-12-07T00:54:51;13.90;;;6.47;;
73599;SDS011;61877;48.246;9.220;2022-12-07T00:57:17;12.00;;;6.00;;
73599;SDS011;61877;48.246;9.220;2022-12-07T00:59:44;13.32;;;6.05;;
73599;SDS011;61877;48.246;9.220;2022-12-07T01:02:09;13.07;;;6.10;;
73599;SDS011;61877;48.246;9.220;2022-12-07T01:04:35;13.75;;;6.38;;
73599;SDS011;61877;48.246;9.220;2022-12-07T01:07:00;12.40;;;6.00;;
73599;SDS011;61877;48.246;9.220;2022-12-07T01:09:26;13.63;;;6.53;;
73599;SDS011;61877;48.246;9.220;2022-12-07T01:11:51;12.77;;;5.53;;
73599;SDS011;61877;48.246;9.220;2022-12-07T01:14:17;13.05;;;5.70;;
73599;SDS011;61877;48.246;9.220;2022-12-07T01:16:43;11.67;;;5.20;;
73599;SDS011;61877;48.246;9.220;2022-12-07T01:19:09;12.30;;;5.80;;
73599;SDS011;61877;48.246;9.220;2022-12-07T01:21:34;12.70;;;6.03;;
73599;SDS011;61877;48.246;9.220;2022-12-07T01:24:00;14.30;;;6.43;;
73599;SDS011;61877;48.246;9.220;2022-12-07T01:26:26;11.93;;;5.47;;
73599;SDS011;61877;48.246;9.220;2022-12-07T01:28:54;12.97;;;5.60;;
73599;SDS011;61877;48.246;9.220;2022-12-07T01:31:23;12.13;;;5.80;;
73599;SDS011;61877;48.246;9.220;2022-12-07T01:33:52;12.65;;;5.80;;
73599;SDS011;61877;48.246;9.220;2022-12-07T01:36:19;12.25;;;5.60;;
73599;SDS011;61877;48.246;9.220;2022-12-07T01:38:46;13.38;;;6.20;;
73599;SDS011;61877;48.246;9.220;2022-12-07T01:41:13;11.90;;;5.60;;
73599;SDS011;61877;48.246;9.220;2022-12-07T01:44:06;12.77;;;6.15;;
73599;SDS011;61877;48.246;9.220;2022-12-07T01:46:51;13.02;;;5.93;;
73599;SDS011;61877;48.246;9.220;2022-12-07T01:49:21;13.43;;;6.13;;
73599;SDS011;61877;48.246;9.220;2022-12-07T01:51:52;14.20;;;6.13;;
73599;SDS011;61877;48.246;9.220;2022-12-07T01:54:23;11.73;;;6.10;;
73599;SDS011;61877;48.246;9.220;2022-12-07T01:56:50;15.23;;;6.85;;
73599;SDS011;61877;48.246;9.220;2022-12-07T01:59:18;12.38;;;6.13;;
73599;SDS011;61877;48.246;9.220;2022-12-07T02:01:47;12.48;;;5.90;;
73599;SDS011;61877;48.246;9.220;2022-12-07T02:04:12;13.13;;;6.10;;
73599;SDS011;61877;48.246;9.220;2022-12-07T02:06:39;12.02;;;5.95;;
73599;SDS011;61877;48.246;9.220;2022-12-07T02:09:07;13.77;;;6.20;;
73599;SDS011;61877;48.246;9.220;2022-12-07T02:11:33;13.80;;;6.45;;
73599;SDS011;61877;48.246;9.220;2022-12-07T02:13:58;13.70;;;6.83;;
73599;SDS011;61877;48.246;9.220;2022-12-07T02:16:25;13.82;;;6.90;;
73599;SDS011;61877;48.246;9.220;2022-12-07T02:18:59;14.80;;;6.63;;
73599;SDS011;61877;48.246;9.220;2022-12-07T02:21:46;13.80;;;7.13;;
73599;SDS011;61877;48.246;9.220;2022-12-07T02:24:25;15.20;;;7.05;;
73599;SDS011;61877;48.246;9.220;2022-12-07T02:27:24;14.90;;;7.45;;
73599;SDS011;61877;48.246;9.220;2022-12-07T02:30:01;14.85;;;7.00;;
73599;SDS011;61877;48.246;9.220;2022-12-07T02:32:37;16.67;;;7.73;;
73599;SDS011;61877;48.246;9.220;2022-12-07T02:35:09;15.32;;;7.53;;
73599;SDS011;61877;48.246;9.220;2022-12-07T02:37:39;15.95;;;8.02;;
73599;SDS011;61877;48.246;9.220;2022-12-07T02:40:10;15.55;;;7.40;;
73599;SDS011;61877;48.246;9.220;2022-12-07T02:42:42;14.68;;;6.88;;
73599;SDS011;61877;48.246;9.220;2022-12-07T02:45:15;15.20;;;7.43;;
73599;SDS011;61877;48.246;9.220;2022-12-07T02:47:45;14.70;;;7.32;;
73599;SDS011;61877;48.246;9.220;2022-12-07T02:50:17;15.00;;;7.15;;
73599;SDS011;61877;48.246;9.220;2022-12-07T02:52:43;16.17;;;7.57;;
73599;SDS011;61877;48.246;9.220;2022-12-07T02:55:08;14.53;;;6.70;;
73599;SDS011;61877;48.246;9.220;2022-12-07T02:57:38;14.07;;;7.00;;
73599;SDS011;61877;48.246;9.220;2022-12-07T03:00:15;14.27;;;6.68;;
73599;SDS011;61877;48.246;9.220;2022-12-07T03:02:46;14.82;;;7.03;;
73599;SDS011;61877;48.246;9.220;2022-12-07T03:05:22;14.57;;;6.78;;
73599;SDS011;61877;48.246;9.220;2022-12-07T03:07:58;15.25;;;6.75;;
73599;SDS011;61877;48.246;9.220;2022-12-07T03:10:28;14.70;;;6.90;;
73599;SDS011;61877;48.246;9.220;2022-12-07T03:13:02;12.20;;;5.97;;
73599;SDS011;61877;48.246;9.220;2022-12-07T03:15:35;13.32;;;5.80;;
73599;SDS011;61877;48.246;9.220;2022-12-07T03:18:08;11.45;;;5.43;;
73599;SDS011;61877;48.246;9.220;2022-12-07T03:20:36;12.32;;;5.63;;
73599;SDS011;61877;48.246;9.220;2022-12-07T03:23:04;13.27;;;6.30;;
73599;SDS011;61877;48.246;9.220;2022-12-07T03:25:32;12.75;;;5.97;;
73599;SDS011;61877;48.246;9.220;2022-12-07T03:28:01;12.13;;;6.15;;
73599;SDS011;61877;48.246;9.220;2022-12-07T03:30:30;12.60;;;6.00;;
73599;SDS011;61877;48.246;9.220;2022-12-07T03:32:59;12.60;;;6.05;;
73599;SDS011;61877;48.246;9.220;2022-12-07T03:35:30;11.57;;;5.83;;
73599;SDS011;61877;48.246;9.220;2022-12-07T03:38:00;12.18;;;6.03;;
73599;SDS011;61877;48.246;9.220;2022-12-07T03:40:33;11.50;;;5.93;;
73599;SDS011;61877;48.246;9.220;2022-12-07T03:43:02;12.35;;;5.75;;
73599;SDS011;61877;48.246;9.220;2022-12-07T03:45:31;12.98;;;6.18;;
73599;SDS011;61877;48.246;9.220;2022-12-07T03:48:05;12.00;;;6.27;;
73599;SDS011;61877;48.246;9.220;2022-12-07T03:50:41;13.00;;;6.63;;
73599;SDS011;61877;48.246;9.220;2022-12-07T03:53:13;11.98;;;6.03;;
73599;SDS011;61877;48.246;9.220;2022-12-07T03:55:43;12.60;;;6.30;;
73599;SDS011;61877;48.246;9.220;2022-12-07T03:58:11;11.98;;;5.97;;
73599;SDS011;61877;48.246;9.220;2022-12-07T04:00:40;12.03;;;5.97;;
73599;SDS011;61877;48.246;9.220;2022-12-07T04:03:07;10.63;;;5.45;;
73599;SDS011;61877;48.246;9.220;2022-12-07T04:05:33;11.48;;;5.78;;
73599;SDS011;61877;48.246;9.220;2022-12-07T04:07:59;9.70;;;4.88;;
73599;SDS011;61877;48.246;9.220;2022-12-07T04:10:24;9.80;;;4.50;;
73599;SDS011;61877;48.246;9.220;2022-12-07T04:12:50;10.63;;;5.43;;
73599;SDS011;61877;48.246;9.220;2022-12-07T04:15:15;10.20;;;5.23;;
73599;SDS011;61877;48.246;9.220;2022-12-07T04:17:41;11.20;;;5.55;;
73599;SDS011;61877;48.246;9.220;2022-12-07T04:20:08;14.13;;;5.63;;
73599;SDS011;61877;48.246;9.220;2022-12-07T04:22:35;9.57;;;5.15;;
73599;SDS011;61877;48.246;9.220;2022-12-07T04:25:00;10.37;;;5.30;;
73599;SDS011;61877;48.246;9.220;2022-12-07T04:27:25;10.67;;;5.70;;
73599;SDS011;61877;48.246;9.220;2022-12-07T04:29:51;12.33;;;6.60;;
73599;SDS011;61877;48.246;9.220;2022-12-07T04:32:16;11.93;;;5.70;;
73599;SDS011;61877;48.246;9.220;2022-12-07T04:34:42;11.50;;;5.77;;
73599;SDS011;61877;48.246;9.220;2022-12-07T04:37:08;10.63;;;5.60;;
73599;SDS011;61877;48.246;9.220;2022-12-07T04:39:34;11.52;;;5.88;;
73599;SDS011;61877;48.246;9.220;2022-12-07T04:42:00;10.75;;;5.60;;
73599;SDS011;61877;48.246;9.220;2022-12-07T04:44:27;11.40;;;5.77;;
73599;SDS011;61877;48.246;9.220;2022-12-07T04:46:53;11.27;;;5.45;;
73599;SDS011;61877;48.246;9.220;2022-12-07T04:49:19;11.98;;;6.18;;
73599;SDS011;61877;48.246;9.220;2022-12-07T04:51:45;11.98;;;5.97;;
73599;SDS011;61877;48.246;9.220;2022-12-07T04:54:13;11.90;;;6.10;;
73599;SDS011;61877;48.246;9.220;2022-12-07T04:56:39;11.88;;;6.20;;
73599;SDS011;61877;48.246;9.220;2022-12-07T04:59:05;11.93;;;6.20;;
73599;SDS011;61877;48.246;9.220;2022-12-07T05:01:31;11.45;;;5.95;;
73599;SDS011;61877;48.246;9.220;2022-12-07T05:03:56;13.97;;;6.93;;
73599;SDS011;61877;48.246;9.220;2022-12-07T05:06:22;14.70;;;6.97;;
73599;SDS011;61877;48.246;9.220;2022-12-07T05:08:47;11.90;;;6.07;;
73599;SDS011;61877;48.246;9.220;2022-12-07T05:11:14;12.73;;;6.33;;
73599;SDS011;61877;48.246;9.220;2022-12-07T05:13:40;11.43;;;5.65;;
73599;SDS011;61877;48.246;9.220;2022-12-07T05:16:06;12.30;;;6.07;;
73599;SDS011;61877;48.246;9.220;2022-12-07T05:18:31;12.63;;;6.82;;
73599;SDS011;61877;48.246;9.220;2022-12-07T05:20:57;13.57;;;6.97;;
73599;SDS011;61877;48.246;9.220;2022-12-07T05:23:22;12.33;;;6.53;;
73599;SDS011;61877;48.246;9.220;2022-12-07T05:25:48;13.52;;;7.18;;
73599;SDS011;61877;48.246;9.220;2022-12-07T05:28:15;14.73;;;7.60;;
73599;SDS011;61877;48.246;9.220;2022-12-07T05:30:40;14.13;;;7.53;;
73599;SDS011;61877;48.246;9.220;2022-12-07T05:33:06;16.23;;;8.50;;
73599;SDS011;61877;48.246;9.220;2022-12-07T05:35:31;14.10;;;7.83;;
73599;SDS011;61877;48.246;9.220;2022-12-07T05:37:56;14.07;;;7.15;;
73599;SDS011;61877;48.246;9.220;2022-12-07T05:40:22;14.10;;;7.33;;
73599;SDS011;61877;48.246;9.220;2022-12-07T05:42:48;15.57;;;7.70;;
73599;SDS011;61877;48.246;9.220;2022-12-07T05:45:14;15.18;;;7.82;;
73599;SDS011;61877;48.246;9.220;2022-12-07T05:47:40;23.52;;;9.73;;
73599;SDS011;61877;48.246;9.220;2022-12-07T05:50:06;20.20;;;8.80;;
73599;SDS011;61877;48.246;9.220;2022-12-07T05:52:32;35.42;;;16.35;;
73599;SDS011;61877;48.246;9.220;2022-12-07T05:54:58;22.13;;;11.00;;
73599;SDS011;61877;48.246;9.220;2022-12-07T05:57:23;20.57;;;11.17;;
73599;SDS011;61877;48.246;9.220;2022-12-07T05:59:48;17.17;;;8.40;;
73599;SDS011;61877;48.246;9.220;2022-12-07T06:02:16;14.23;;;7.50;;
73599;SDS011;61877;48.246;9.220;2022-12-07T06:04:42;14.38;;;7.40;;
73599;SDS011;61877;48.246;9.220;2022-12-07T06:07:09;17.38;;;8.68;;
73599;SDS011;61877;48.246;9.220;2022-12-07T06:09:35;16.73;;;9.00;;
73599;SDS011;61877;48.246;9.220;2022-12-07T06:12:01;15.45;;;7.68;;
73599;SDS011;61877;48.246;9.220;2022-12-07T06:14:27;16.58;;;8.40;;
73599;SDS011;61877;48.246;9.220;2022-12-07T06:16:53;15.80;;;7.23;;
73599;SDS011;61877;48.246;9.220;2022-12-07T06:19:20;13.98;;;6.68;;
73599;SDS011;61877;48.246;9.220;2022-12-07T06:21:46;13.75;;;6.95;;
73599;SDS011;61877;48.246;9.220;2022-12-07T06:24:12;14.80;;;6.33;;
73599;SDS011;61877;48.246;9.220;2022-12-07T06:26:39;14.13;;;6.78;;
73599;SDS011;61877;48.246;9.220;2022-12-07T06:29:04;13.23;;;6.47;;
73599;SDS011;61877;48.246;9.220;2022-12-07T06:31:30;12.98;;;6.45;;
73599;SDS011;61877;48.246;9.220;2022-12-07T06:33:59;13.23;;;6.63;;
73599;SDS011;61877;48.246;9.220;2022-12-07T06:36:26;15.25;;;6.68;;
73599;SDS011;61877;48.246;9.220;2022-12-07T06:38:51;13.95;;;6.85;;
73599;SDS011;61877;48.246;9.220;2022-12-07T06:41:17;13.70;;;6.70;;
73599;SDS011;61877;48.246;9.220;2022-12-07T06:43:43;12.43;;;6.30;;
73599;SDS011;61877;48.246;9.220;2022-12-07T06:46:08;12.57;;;6.30;;
73599;SDS011;61877;48.246;9.220;2022-12-07T06:48:33;14.07;;;6.43;;
73599;SDS011;61877;48.246;9.220;2022-12-07T06:50:59;13.87;;;6.87;;
73599;SDS011;61877;48.246;9.220;2022-12-07T06:53:26;13.63;;;6.75;;
73599;SDS011;61877;48.246;9.220;2022-12-07T06:55:51;12.90;;;6.93;;
73599;SDS011;61877;48.246;9.220;2022-12-07T06:58:17;13.60;;;7.03;;
73599;SDS011;61877;48.246;9.220;2022-12-07T07:00:43;13.23;;;7.07;;
73599;SDS011;61877;48.246;9.220;2022-12-07T07:03:08;13.57;;;6.77;;
73599;SDS011;61877;48.246;9.220;2022-12-07T07:05:34;13.43;;;6.90;;
73599;SDS011;61877;48.246;9.220;2022-12-07T07:07:59;12.87;;;6.80;;
73599;SDS011;61877;48.246;9.220;2022-12-07T07:10:26;13.82;;;7.40;;
73599;SDS011;61877;48.246;9.220;2022-12-07T07:12:52;13.23;;;6.85;;
73599;SDS011;61877;48.246;9.220;2022-12-07T07:15:17;12.37;;;6.27;;
73599;SDS011;61877;48.246;9.220;2022-12-07T07:17:43;13.07;;;6.33;;
73599;SDS011;61877;48.246;9.220;2022-12-07T07:20:08;12.35;;;6.10;;
73599;SDS011;61877;48.246;9.220;2022-12-07T07:22:35;12.20;;;5.50;;
73599;SDS011;61877;48.246;9.220;2022-12-07T07:25:00;12.13;;;5.97;;
73599;SDS011;61877;48.246;9.220;2022-12-07T07:27:30;12.20;;;5.83;;
73599;SDS011;61877;48.246;9.220;2022-12-07T07:29:55;11.65;;;5.85;;
73599;SDS011;61877;48.246;9.220;2022-12-07T07:32:21;12.10;;;6.23;;
73599;SDS011;61877;48.246;9.220;2022-12-07T07:34:46;13.00;;;6.53;;
73599;SDS011;61877;48.246;9.220;2022-12-07T07:37:12;12.48;;;6.82;;
73599;SDS011;61877;48.246;9.220;2022-12-07T07:39:37;12.87;;;6.90;;
73599;SDS011;61877;48.246;9.220;2022-12-07T07:42:03;15.03;;;7.80;;
73599;SDS011;61877;48.246;9.220;2022-12-07T07:44:33;14.55;;;7.88;;
73599;SDS011;61877;48.246;9.220;2022-12-07T07:49:52;22.85;;;14.00;;
73599;SDS011;61877;48.246;9.220;2022-12-07T07:52:20;18.13;;;9.67;;
73599;SDS011;61877;48.246;9.220;2022-12-07T07:54:46;16.48;;;8.80;;
73599;SDS011;61877;48.246;9.220;2022-12-07T07:57:11;15.23;;;7.30;;
73599;SDS011;61877;48.246;9.220;2022-12-07T07:59:38;17.90;;;8.53;;
73599;SDS011;61877;48.246;9.220;2022-12-07T08:02:03;12.65;;;6.75;;
73599;SDS011;61877;48.246;9.220;2022-12-07T08:04:29;13.23;;;6.57;;
73599;SDS011;61877;48.246;9.220;2022-12-07T08:06:54;15.13;;;7.18;;
73599;SDS011;61877;48.246;9.220;2022-12-07T08:09:21;15.23;;;7.97;;
73599;SDS011;61877;48.246;9.220;2022-12-07T08:11:46;15.73;;;8.38;;
73599;SDS011;61877;48.246;9.220;2022-12-07T08:14:30;17.90;;;9.47;;
73599;SDS011;61877;48.246;9.220;2022-12-07T08:17:05;16.50;;;8.68;;
73599;SDS011;61877;48.246;9.220;2022-12-07T08:19:30;16.40;;;8.80;;
73599;SDS011;61877;48.246;9.220;2022-12-07T08:21:56;17.30;;;8.77;;
73599;SDS011;61877;48.246;9.220;2022-12-07T08:24:21;20.63;;;10.03;;
73599;SDS011;61877;48.246;9.220;2022-12-07T08:26:47;18.75;;;9.43;;
73599;SDS011;61877;48.246;9.220;2022-12-07T08:29:13;16.80;;;9.40;;
73599;SDS011;61877;48.246;9.220;2022-12-07T08:31:38;16.10;;;8.77;;
73599;SDS011;61877;48.246;9.220;2022-12-07T08:34:05;15.90;;;8.10;;
73599;SDS011;61877;48.246;9.220;2022-12-07T08:36:30;17.20;;;8.63;;
73599;SDS011;61877;48.246;9.220;2022-12-07T08:38:56;19.13;;;9.70;;
73599;SDS011;61877;48.246;9.220;2022-12-07T08:41:21;17.83;;;8.90;;
73599;SDS011;61877;48.246;9.220;2022-12-07T08:43:47;17.20;;;9.10;;
73599;SDS011;61877;48.246;9.220;2022-12-07T08:46:13;17.90;;;9.07;;
73599;SDS011;61877;48.246;9.220;2022-12-07T08:48:46;15.45;;;7.72;;
73599;SDS011;61877;48.246;9.220;2022-12-07T08:51:16;16.02;;;7.75;;
73599;SDS011;61877;48.246;9.220;2022-12-07T08:53:42;12.83;;;6.30;;
73599;SDS011;61877;48.246;9.220;2022-12-07T08:56:08;11.73;;;5.50;;
73599;SDS011;61877;48.246;9.220;2022-12-07T08:58:34;12.23;;;6.32;;
73599;SDS011;61877;48.246;9.220;2022-12-07T09:01:02;11.02;;;5.45;;
73599;SDS011;61877;48.246;9.220;2022-12-07T09:03:28;11.57;;;5.30;;
73599;SDS011;61877;48.246;9.220;2022-12-07T09:05:54;12.03;;;5.50;;
73599;SDS011;61877;48.246;9.220;2022-12-07T09:08:21;6.43;;;3.10;;
73599;SDS011;61877;48.246;9.220;2022-12-07T09:10:56;8.95;;;4.05;;
73599;SDS011;61877;48.246;9.220;2022-12-07T09:16:27;8.15;;;4.20;;
73599;SDS011;61877;48.246;9.220;2022-12-07T09:18:52;7.97;;;3.87;;
73599;SDS011;61877;48.246;9.220;2022-12-07T09:21:18;6.95;;;3.25;;
73599;SDS011;61877;48.246;9.220;2022-12-07T09:23:44;6.90;;;3.20;;
73599;SDS011;61877;48.246;9.220;2022-12-07T09:26:10;7.32;;;3.42;;
73599;SDS011;61877;48.246;9.220;2022-12-07T09:28:35;7.80;;;3.90;;
73599;SDS011;61877;48.246;9.220;2022-12-07T09:31:02;6.90;;;3.43;;
73599;SDS011;61877;48.246;9.220;2022-12-07T09:33:28;6.10;;;2.60;;
73599;SDS011;61877;48.246;9.220;2022-12-07T09:35:53;6.63;;;2.80;;
73599;SDS011;61877;48.246;9.220;2022-12-07T09:38:19;6.77;;;2.83;;
73599;SDS011;61877;48.246;9.220;2022-12-07T09:40:46;6.18;;;2.70;;
73599;SDS011;61877;48.246;9.220;2022-12-07T09:43:14;21.13;;;7.17;;
73599;SDS011;61877;48.246;9.220;2022-12-07T09:45:42;11.95;;;5.78;;
73599;SDS011;61877;48.246;9.220;2022-12-07T09:48:14;6.38;;;2.70;;
73599;SDS011;61877;48.246;9.220;2022-12-07T09:50:42;5.88;;;2.03;;
73599;SDS011;61877;48.246;9.220;2022-12-07T09:53:08;6.10;;;2.33;;
73599;SDS011;61877;48.246;9.220;2022-12-07T09:55:39;5.63;;;2.05;;
73599;SDS011;61877;48.246;9.220;2022-12-07T09:58:09;5.57;;;2.10;;
73599;SDS011;61877;48.246;9.220;2022-12-07T10:00:41;7.00;;;3.00;;
73599;SDS011;61877;48.246;9.220;2022-12-07T10:03:07;5.80;;;2.40;;
73599;SDS011;61877;48.246;9.220;2022-12-07T10:05:36;6.10;;;2.17;;
73599;SDS011;61877;48.246;9.220;2022-12-07T10:08:05;5.65;;;1.83;;
73599;SDS011;61877;48.246;9.220;2022-12-07T10:10:34;6.47;;;2.60;;
73599;SDS011;61877;48.246;9.220;2022-12-07T10:13:00;6.95;;;2.80;;
73599;SDS011;61877;48.246;9.220;2022-12-07T10:15:45;6.68;;;2.45;;
73599;SDS011;61877;48.246;9.220;2022-12-07T10:18:17;6.23;;;2.63;;
73599;SDS011;61877;48.246;9.220;2022-12-07T10:20:45;5.90;;;2.40;;
73599;SDS011;61877;48.246;9.220;2022-12-07T10:23:13;8.05;;;2.85;;
73599;SDS011;61877;48.246;9.220;2022-12-07T10:25:40;7.55;;;3.00;;
73599;SDS011;61877;48.246;9.220;2022-12-07T10:28:11;6.23;;;2.33;;
73599;SDS011;61877;48.246;9.220;2022-12-07T10:30:56;5.82;;;2.30;;
73599;SDS011;61877;48.246;9.220;2022-12-07T10:33:31;5.80;;;2.33;;
73599;SDS011;61877;48.246;9.220;2022-12-07T10:35:59;6.40;;;2.47;;
73599;SDS011;61877;48.246;9.220;2022-12-07T10:38:26;6.10;;;2.43;;
73599;SDS011;61877;48.246;9.220;2022-12-07T10:41:02;5.70;;;2.20;;
73599;SDS011;61877;48.246;9.220;2022-12-07T10:43:30;6.55;;;3.00;;
73599;SDS011;61877;48.246;9.220;2022-12-07T10:46:03;5.80;;;2.20;;
73599;SDS011;61877;48.246;9.220;2022-12-07T10:48:43;6.10;;;2.60;;
73599;SDS011;61877;48.246;9.220;2022-12-07T10:51:19;6.00;;;2.50;;
73599;SDS011;61877;48.246;9.220;2022-12-07T10:53:54;5.75;;;2.15;;
73599;SDS011;61877;48.246;9.220;2022-12-07T10:59:34;6.82;;;2.40;;
73599;SDS011;61877;48.246;9.220;2022-12-07T11:02:18;6.35;;;2.55;;
73599;SDS011;61877;48.246;9.220;2022-12-07T11:04:54;6.35;;;3.00;;
73599;SDS011;61877;48.246;9.220;2022-12-07T11:10:54;6.20;;;2.30;;
73599;SDS011;61877;48.246;9.220;2022-12-07T11:13:27;5.75;;;2.30;;
73599;SDS011;61877;48.246;9.220;2022-12-07T11:24:48;5.80;;;2.30;;
73599;SDS011;61877;48.246;9.220;2022-12-07T11:27:21;6.20;;;2.50;;
73599;SDS011;61877;48.246;9.220;2022-12-07T11:32:44;9.18;;;4.50;;
73599;SDS011;61877;48.246;9.220;2022-12-07T11:35:42;6.60;;;2.80;;
73599;SDS011;61877;48.246;9.220;2022-12-07T11:38:15;9.50;;;4.10;;
73599;SDS011;61877;48.246;9.220;2022-12-07T11:40:51;9.43;;;5.00;;
73599;SDS011;61877;48.246;9.220;2022-12-07T11:43:22;7.50;;;3.67;;
73599;SDS011;61877;48.246;9.220;2022-12-07T11:45:53;8.80;;;3.97;;
73599;SDS011;61877;48.246;9.220;2022-12-07T11:48:24;7.03;;;3.22;;
73599;SDS011;61877;48.246;9.220;2022-12-07T11:50:57;6.80;;;3.00;;
73599;SDS011;61877;48.246;9.220;2022-12-07T11:53:27;8.70;;;3.40;;
73599;SDS011;61877;48.246;9.220;2022-12-07T11:56:00;8.13;;;3.80;;
73599;SDS011;61877;48.246;9.220;2022-12-07T11:58:42;7.88;;;3.40;;
73599;SDS011;61877;48.246;9.220;2022-12-07T12:01:15;11.20;;;5.68;;
73599;SDS011;61877;48.246;9.220;2022-12-07T12:03:49;14.10;;;6.53;;
73599;SDS011;61877;48.246;9.220;2022-12-07T12:06:17;9.23;;;4.15;;
73599;SDS011;61877;48.246;9.220;2022-12-07T12:08:46;8.50;;;4.03;;
73599;SDS011;61877;48.246;9.220;2022-12-07T12:11:18;8.20;;;3.72;;
73599;SDS011;61877;48.246;9.220;2022-12-07T12:14:01;11.27;;;4.95;;
73599;SDS011;61877;48.246;9.220;2022-12-07T12:16:44;8.93;;;4.07;;
73599;SDS011;61877;48.246;9.220;2022-12-07T12:19:24;9.27;;;4.20;;
73599;SDS011;61877;48.246;9.220;2022-12-07T12:21:56;10.18;;;4.45;;
73599;SDS011;61877;48.246;9.220;2022-12-07T12:24:30;9.00;;;3.70;;
73599;SDS011;61877;48.246;9.220;2022-12-07T12:26:59;8.57;;;3.50;;
73599;SDS011;61877;48.246;9.220;2022-12-07T12:29:30;10.80;;;4.30;;
73599;SDS011;61877;48.246;9.220;2022-12-07T12:32:12;10.98;;;4.18;;
73599;SDS011;61877;48.246;9.220;2022-12-07T12:34:41;8.77;;;3.67;;
73599;SDS011;61877;48.246;9.220;2022-12-07T12:37:38;9.55;;;3.90;;
73599;SDS011;61877;48.246;9.220;2022-12-07T12:43:38;9.13;;;4.03;;
73599;SDS011;61877;48.246;9.220;2022-12-07T12:52:00;8.63;;;3.60;;
73599;SDS011;61877;48.246;9.220;2022-12-07T12:54:27;8.90;;;3.85;;
73599;SDS011;61877;48.246;9.220;2022-12-07T12:56:58;10.20;;;4.33;;
73599;SDS011;61877;48.246;9.220;2022-12-07T12:59:31;9.88;;;4.80;;
73599;SDS011;61877;48.246;9.220;2022-12-07T13:02:09;10.63;;;4.65;;
73599;SDS011;61877;48.246;9.220;2022-12-07T13:04:51;9.13;;;4.00;;
73599;SDS011;61877;48.246;9.220;2022-12-07T13:10:20;10.00;;;4.20;;
73599;SDS011;61877;48.246;9.220;2022-12-07T13:12:56;10.88;;;5.10;;
73599;SDS011;61877;48.246;9.220;2022-12-07T13:15:32;9.57;;;4.30;;
73599;SDS011;61877;48.246;9.220;2022-12-07T13:18:03;10.45;;;4.80;;
73599;SDS011;61877;48.246;9.220;2022-12-07T13:20:48;11.35;;;5.45;;
73599;SDS011;61877;48.246;9.220;2022-12-07T13:23:16;11.03;;;4.60;;
73599;SDS011;61877;48.246;9.220;2022-12-07T13:25:45;8.70;;;4.03;;
73599;SDS011;61877;48.246;9.220;2022-12-07T13:28:17;12.93;;;5.57;;
73599;SDS011;61877;48.246;9.220;2022-12-07T13:30:47;12.32;;;5.38;;
73599;SDS011;61877;48.246;9.220;2022-12-07T13:33:27;13.73;;;6.28;;
73599;SDS011;61877;48.246;9.220;2022-12-07T13:35:53;11.13;;;5.00;;
73599;SDS011;61877;48.246;9.220;2022-12-07T13:38:22;20.45;;;9.82;;
73599;SDS011;61877;48.246;9.220;2022-12-07T13:43:48;9.57;;;4.45;;
73599;SDS011;61877;48.246;9.220;2022-12-07T13:46:15;10.13;;;4.47;;
73599;SDS011;61877;48.246;9.220;2022-12-07T13:48:44;9.97;;;4.80;;
73599;SDS011;61877;48.246;9.220;2022-12-07T13:51:16;10.90;;;5.05;;
73599;SDS011;61877;48.246;9.220;2022-12-07T13:53:46;11.90;;;5.10;;
73599;SDS011;61877;48.246;9.220;2022-12-07T13:56:12;9.07;;;3.85;;
73599;SDS011;61877;48.246;9.220;2022-12-07T13:58:39;8.32;;;3.90;;
73599;SDS011;61877;48.246;9.220;2022-12-07T14:01:06;8.53;;;3.60;;
73599;SDS011;61877;48.246;9.220;2022-12-07T14:03:32;9.52;;;4.00;;
73599;SDS011;61877;48.246;9.220;2022-12-07T14:06:03;8.98;;;4.22;;
73599;SDS011;61877;48.246;9.220;2022-12-07T14:08:38;10.07;;;4.37;;
73599;SDS011;61877;48.246;9.220;2022-12-07T14:11:03;9.63;;;4.80;;
73599;SDS011;61877;48.246;9.220;2022-12-07T14:13:30;9.33;;;4.40;;
73599;SDS011;61877;48.246;9.220;2022-12-07T14:15:57;8.15;;;3.75;;
73599;SDS011;61877;48.246;9.220;2022-12-07T14:18:36;9.07;;;4.13;;
73599;SDS011;61877;48.246;9.220;2022-12-07T14:21:03;9.25;;;4.53;;
73599;SDS011;61877;48.246;9.220;2022-12-07T14:23:39;9.43;;;4.83;;
73599;SDS011;61877;48.246;9.220;2022-12-07T14:26:07;9.00;;;4.40;;
73599;SDS011;61877;48.246;9.220;2022-12-07T14:28:37;9.30;;;4.35;;
73599;SDS011;61877;48.246;9.220;2022-12-07T14:31:03;8.75;;;4.30;;
73599;SDS011;61877;48.246;9.220;2022-12-07T14:33:36;8.25;;;4.00;;
73599;SDS011;61877;48.246;9.220;2022-12-07T14:36:03;9.87;;;4.40;;
73599;SDS011;61877;48.246;9.220;2022-12-07T14:38:28;9.65;;;4.68;;
73599;SDS011;61877;48.246;9.220;2022-12-07T14:40:54;9.50;;;4.27;;
73599;SDS011;61877;48.246;9.220;2022-12-07T14:43:20;8.90;;;4.00;;
73599;SDS011;61877;48.246;9.220;2022-12-07T14:45:45;8.97;;;4.40;;
73599;SDS011;61877;48.246;9.220;2022-12-07T14:48:11;9.23;;;4.18;;
73599;SDS011;61877;48.246;9.220;2022-12-07T14:50:40;8.93;;;4.32;;
73599;SDS011;61877;48.246;9.220;2022-12-07T14:53:10;9.13;;;4.18;;
73599;SDS011;61877;48.246;9.220;2022-12-07T14:55:39;10.90;;;4.60;;
73599;SDS011;61877;48.246;9.220;2022-12-07T14:58:04;9.32;;;4.38;;
73599;SDS011;61877;48.246;9.220;2022-12-07T15:00:30;9.37;;;4.53;;
73599;SDS011;61877;48.246;9.220;2022-12-07T15:02:56;10.48;;;4.72;;
73599;SDS011;61877;48.246;9.220;2022-12-07T15:05:22;9.27;;;4.50;;
73599;SDS011;61877;48.246;9.220;2022-12-07T15:07:49;10.43;;;5.03;;
73599;SDS011;61877;48.246;9.220;2022-12-07T15:10:16;9.90;;;4.50;;
73599;SDS011;61877;48.246;9.220;2022-12-07T15:12:43;9.57;;;4.88;;
73599;SDS011;61877;48.246;9.220;2022-12-07T15:15:09;9.53;;;4.50;;
73599;SDS011;61877;48.246;9.220;2022-12-07T15:17:34;9.77;;;4.40;;
73599;SDS011;61877;48.246;9.220;2022-12-07T15:20:00;9.70;;;4.97;;
73599;SDS011;61877;48.246;9.220;2022-12-07T15:22:26;10.30;;;4.17;;
73599;SDS011;61877;48.246;9.220;2022-12-07T15:24:52;9.40;;;4.22;;
73599;SDS011;61877;48.246;9.220;2022-12-07T15:27:18;8.47;;;4.03;;